Time;durP1;ratioP1;P1;durP2;ratioP2;P2;SDS_P1;SDS_P2;PMS_P1;PMS_P2;Temp;Humidity;BMP_temperature;BMP_pressure;BME280_temperature;BME280_humidity;BME280_pressure;Samples;Min_cycle;Max_cycle;Signal;HPM_P1;HPM_P2
2022/06/18 00:01:34;;;;;;;10.77;2.87;;;;;;;27.01;100.00;101641.38;4974157;28;20043;-59
2022/06/18 00:04:03;;;;;;;6.77;2.83;;;;;;;27.14;100.00;101653.63;4974090;29;20028;-59
2022/06/18 00:06:30;;;;;;;13.87;3.00;;;;;;;27.12;100.00;101655.00;4973902;28;20038;-58
2022/06/18 00:08:56;;;;;;;6.07;3.07;;;;;;;27.09;100.00;101653.63;4974081;28;20035;-59
2022/06/18 00:14:06;;;;;;;7.97;3.00;;;;;;;27.08;100.00;101651.19;4974049;29;19914;-59
2022/06/18 00:16:32;;;;;;;8.60;3.00;;;;;;;27.25;100.00;101657.09;4973928;29;20039;-59
2022/06/18 00:18:58;;;;;;;8.68;3.05;;;;;;;27.61;100.00;101647.69;4973489;28;20042;-59
2022/06/18 00:21:25;;;;;;;9.57;3.08;;;;;;;27.82;100.00;101648.25;4973929;28;20102;-55
2022/06/18 00:23:51;;;;;;;4.90;2.90;;;;;;;27.90;100.00;101646.78;4973743;29;20105;-56
2022/06/18 00:26:17;;;;;;;7.73;3.50;;;;;;;27.49;100.00;101648.06;4973950;29;20046;-57
2022/06/18 00:28:44;;;;;;;6.73;2.87;;;;;;;27.34;100.00;101647.09;4973878;29;20038;-56
2022/06/18 00:31:10;;;;;;;8.40;3.60;;;;;;;27.23;100.00;101645.56;4984178;28;20042;-60
2022/06/18 00:33:39;;;;;;;5.50;2.60;;;;;;;27.25;100.00;101648.84;4973628;28;20047;-59
2022/06/18 00:36:07;;;;;;;9.07;2.90;;;;;;;26.64;100.00;101642.72;4998381;28;20053;-59
2022/06/18 00:38:39;;;;;;;25.47;3.70;;;;;;;26.76;100.00;101640.47;4985935;28;20127;-59
2022/06/18 00:41:08;;;;;;;11.47;4.23;;;;;;;26.97;100.00;101637.56;4972087;29;20045;-60
2022/06/18 00:43:42;;;;;;;6.40;3.17;;;;;;;26.81;100.00;101633.28;4973460;29;20451;-58
2022/06/18 00:46:19;;;;;;;7.30;3.87;;;;;;;26.87;100.00;101637.66;4973549;29;20031;-60
2022/06/18 00:49:03;;;;;;;;;;;;;;;26.83;100.00;101642.84;4972772;28;20146;-59
2022/06/18 00:51:37;;;;;;;11.20;3.33;;;;;;;26.27;100.00;101636.66;5020527;28;19992;-60
2022/06/18 00:54:11;;;;;;;6.90;3.40;;;;;;;26.48;100.00;101623.63;4994952;28;20035;-60
2022/06/18 00:56:43;;;;;;;9.23;4.33;;;;;;;26.49;100.00;101624.47;4970762;28;20035;-59
2022/06/18 00:59:31;;;;;;;6.50;3.60;;;;;;;26.26;100.00;101617.75;4972518;29;20351;-60
2022/06/18 01:01:58;;;;;;;11.63;3.80;;;;;;;26.08;100.00;101617.28;4991222;28;20063;-59
2022/06/18 01:04:33;;;;;;;8.47;3.83;;;;;;;26.28;100.00;101615.53;5001613;28;20039;-61
2022/06/18 01:07:05;;;;;;;7.97;3.58;;;;;;;26.29;100.00;101611.69;5015956;28;20031;-59
2022/06/18 01:09:33;;;;;;;14.13;4.40;;;;;;;26.23;100.00;101613.66;4989110;28;20046;-59
2022/06/18 01:11:59;;;;;;;5.97;3.53;;;;;;;26.98;100.00;101622.72;4997818;28;20053;-60
2022/06/18 01:14:27;;;;;;;10.27;4.90;;;;;;;26.70;100.00;101613.34;4988351;28;20031;-59
2022/06/18 01:16:56;;;;;;;8.27;3.80;;;;;;;26.00;100.00;101615.94;5011197;28;20031;-59
2022/06/18 01:19:36;;;;;;;12.60;3.93;;;;;;;26.18;100.00;101605.44;4974629;28;20054;-60
2022/06/18 01:22:39;;;;;;;7.77;4.17;;;;;;;25.90;100.00;101603.13;4972843;28;20035;-60
2022/06/18 01:25:07;;;;;;;9.70;5.07;;;;;;;26.11;100.00;101603.00;4989738;28;20047;-60
2022/06/18 01:27:36;;;;;;;9.70;4.50;;;;;;;25.96;100.00;101597.59;4976459;28;20039;-59
2022/06/18 01:30:06;;;;;;;8.73;4.57;;;;;;;26.16;100.00;101608.50;4972086;28;20038;-60
2022/06/18 01:32:32;;;;;;;8.10;5.10;;;;;;;26.05;100.00;101601.38;4956660;28;20035;-60
2022/06/18 01:34:59;;;;;;;12.00;5.27;;;;;;;26.19;100.00;101601.63;5026205;28;20107;-59
2022/06/18 01:37:26;;;;;;;10.93;5.07;;;;;;;25.67;100.00;101604.56;5001144;28;20884;-60
2022/06/18 01:39:54;;;;;;;8.73;5.03;;;;;;;25.98;100.00;101598.13;5000259;28;20062;-60
2022/06/18 01:42:26;;;;;;;13.68;5.95;;;;;;;26.07;100.00;101596.47;4993930;28;20035;-61
2022/06/18 01:45:21;;;;;;;9.70;5.40;;;;;;;26.12;100.00;101598.34;4993107;28;20045;-61
2022/06/18 01:47:55;;;;;;;10.50;6.20;;;;;;;25.96;100.00;101587.47;4970965;28;20058;-60
2022/06/18 01:50:31;;;;;;;16.87;6.07;;;;;;;26.19;100.00;101588.72;5009517;28;20482;-60
2022/06/18 01:53:16;;;;;;;10.87;5.53;;;;;;;26.46;100.00;101576.47;4972215;29;20035;-59
2022/06/18 01:55:45;;;;;;;10.93;6.10;;;;;;;26.25;100.00;101585.94;4972759;28;20027;-59
2022/06/18 01:58:21;;;;;;;12.50;6.23;;;;;;;26.00;100.00;101585.81;4991145;28;20058;-57
2022/06/18 02:00:53;;;;;;;13.83;6.93;;;;;;;26.07;100.00;101582.75;5018496;28;20027;-59
2022/06/18 02:03:19;;;;;;;9.43;6.27;;;;;;;26.47;100.00;101589.09;5004477;28;20297;-61
2022/06/18 02:05:45;;;;;;;;;;;;;;;26.40;100.00;101580.38;5018947;28;20238;-60
2022/06/18 02:08:15;;;;;;;15.73;7.17;;;;;;;25.94;100.00;101581.44;4999955;28;19974;-60
2022/06/18 02:10:49;;;;;;;14.90;7.00;;;;;;;25.96;100.00;101579.25;5011575;28;20039;-59
2022/06/18 02:13:16;;;;;;;16.03;7.60;;;;;;;25.79;100.00;101592.50;4999622;28;20029;-59
2022/06/18 02:15:46;;;;;;;12.03;7.07;;;;;;;25.34;100.00;101582.19;4972059;29;20087;-60
2022/06/18 02:18:15;;;;;;;13.80;7.30;;;;;;;25.73;100.00;101592.50;4972446;29;20091;-59
2022/06/18 02:20:50;;;;;;;13.63;7.47;;;;;;;25.89;100.00;101589.69;5000002;28;20055;-58
2022/06/18 02:23:18;;;;;;;12.80;6.80;;;;;;;25.55;100.00;101580.25;4999232;28;20047;-57
2022/06/18 02:25:44;;;;;;;16.03;7.70;;;;;;;25.73;100.00;101597.16;4972064;29;20034;-58
2022/06/18 02:28:24;;;;;;;11.05;6.90;;;;;;;25.75;100.00;101592.22;4972000;29;20103;-59
2022/06/18 02:30:52;;;;;;;14.63;7.67;;;;;;;25.66;100.00;101591.97;4954868;28;20035;-58
2022/06/18 02:33:30;;;;;;;16.30;7.00;;;;;;;25.73;100.00;101588.94;4972086;28;20035;-59
2022/06/18 02:36:06;;;;;;;10.80;7.03;;;;;;;25.76;100.00;101593.84;4971877;29;20088;-59
2022/06/18 02:38:32;;;;;;;12.80;7.37;;;;;;;25.57;100.00;101594.47;4955824;28;20059;-59
2022/06/18 02:40:57;;;;;;;15.65;6.85;;;;;;;25.48;100.00;101593.41;4971834;29;20039;-59
2022/06/18 02:43:24;;;;;;;12.20;6.77;;;;;;;25.56;100.00;101594.75;4954927;28;20103;-58
2022/06/18 02:45:53;;;;;;;10.60;6.60;;;;;;;25.46;100.00;101596.38;4955452;28;20034;-59
2022/06/18 02:48:24;;;;;;;11.53;7.10;;;;;;;25.56;100.00;101595.56;4971536;29;20094;-59
2022/06/18 02:50:50;;;;;;;12.43;7.10;;;;;;;25.48;100.00;101594.22;4950635;28;20039;-57
2022/06/18 02:53:17;;;;;;;18.90;7.47;;;;;;;25.65;100.00;101597.75;4971403;28;20032;-59
2022/06/18 02:55:46;;;;;;;14.77;7.82;;;;;;;25.38;100.00;101596.16;5001447;28;20042;-59
2022/06/18 02:58:17;;;;;;;17.30;7.87;;;;;;;25.08;100.00;101601.41;4968983;28;20112;-59
2022/06/18 03:00:46;;;;;;;13.93;7.17;;;;;;;25.01;100.00;101593.47;5000009;28;20042;-60
2022/06/18 03:03:16;;;;;;;11.17;7.13;;;;;;;24.96;100.00;101593.50;4999945;28;20047;-55
2022/06/18 03:05:42;;;;;;;17.13;7.60;;;;;;;24.94;100.00;101595.69;4992561;28;20027;-58
2022/06/18 03:08:08;;;;;;;17.60;8.48;;;;;;;25.04;100.00;101595.66;4971659;29;20036;-59
2022/06/18 03:13:19;;;;;;;20.37;7.93;;;;;;;25.09;100.00;101597.59;4992891;28;20099;-59
2022/06/18 03:15:50;;;;;;;17.97;7.90;;;;;;;25.10;100.00;101604.69;4970639;28;20049;-58
2022/06/18 03:18:18;;;;;;;17.50;8.30;;;;;;;24.86;100.00;101604.41;5035913;28;20049;-59
2022/06/18 03:20:54;;;;;;;15.00;7.23;;;;;;;25.11;100.00;101600.03;4974933;28;20036;-58
2022/06/18 03:23:21;;;;;;;13.13;7.10;;;;;;;24.70;100.00;101607.16;4974702;29;20036;-59
2022/06/18 03:25:47;;;;;;;16.37;7.93;;;;;;;24.89;100.00;101596.50;4974597;28;20099;-60
2022/06/18 03:28:14;;;;;;;;;;;;;;;24.66;100.00;101605.22;5003662;28;20043;-58
2022/06/18 03:30:43;;;;;;;16.05;7.53;;;;;;;24.69;100.00;101610.13;5002843;28;19910;-58
2022/06/18 03:33:10;;;;;;;16.27;8.50;;;;;;;24.99;100.00;101603.03;5042169;28;20076;-58
2022/06/18 03:35:37;;;;;;;13.23;7.53;;;;;;;25.15;100.00;101606.63;5042478;28;20511;-59
2022/06/18 03:38:03;;;;;;;17.17;7.70;;;;;;;24.93;100.00;101605.00;5044440;28;20040;-59
2022/06/18 03:40:29;;;;;;;;;;;;;;;24.86;100.00;101604.41;5045453;28;20036;-60
2022/06/18 03:42:54;;;;;;;17.07;7.87;;;;;;;24.80;100.00;101602.78;5042590;28;19913;-59
2022/06/18 03:45:20;;;;;;;13.40;8.13;;;;;;;25.04;100.00;101600.34;5046326;28;20069;-60
2022/06/18 03:47:48;;;;;;;13.10;8.82;;;;;;;24.89;100.00;101598.41;5047102;28;20048;-59
2022/06/18 03:50:18;;;;;;;22.23;7.93;;;;;;;24.91;100.00;101598.94;5044834;28;20051;-60
2022/06/18 03:52:46;;;;;;;14.80;7.47;;;;;;;25.24;100.00;101602.22;5044146;28;20022;-59
2022/06/18 03:55:16;;;;;;;18.93;8.53;;;;;;;25.29;100.00;101596.72;5044424;28;20053;-60
2022/06/18 03:57:42;;;;;;;17.27;7.57;;;;;;;24.84;100.00;101595.69;5040086;28;20033;-56
2022/06/18 04:00:09;;;;;;;;;;;;;;;25.15;100.00;101590.19;5044569;28;20038;-59
2022/06/18 04:02:42;;;;;;;20.30;8.40;;;;;;;24.94;100.00;101583.91;5045950;28;19928;-59
2022/06/18 04:05:10;;;;;;;12.87;7.77;;;;;;;25.15;100.00;101588.25;5044844;28;20029;-59
2022/06/18 04:07:37;;;;;;;16.93;7.90;;;;;;;25.04;100.00;101586.66;5047597;28;20135;-59
2022/06/18 04:10:17;;;;;;;18.20;8.13;;;;;;;24.96;100.00;101588.03;5046649;28;20045;-59
2022/06/18 04:12:45;;;;;;;11.05;7.53;;;;;;;25.88;100.00;101591.63;5045782;28;20018;-58
2022/06/18 04:15:25;;;;;;;13.60;7.53;;;;;;;25.34;100.00;101588.47;5043972;28;20049;-59
2022/06/18 04:18:06;;;;;;;19.17;7.90;;;;;;;25.34;100.00;101602.16;5046646;28;20102;-60
2022/06/18 04:20:36;;;;;;;14.70;7.70;;;;;;;25.20;100.00;101601.13;5044946;28;20045;-59
2022/06/18 04:23:05;;;;;;;18.70;8.27;;;;;;;25.05;100.00;101600.03;5039207;28;20064;-58
2022/06/18 04:25:36;;;;;;;15.57;7.93;;;;;;;25.08;100.00;101592.38;5046102;28;20030;-59
2022/06/18 04:28:02;;;;;;;;;;;;;;;25.08;100.00;101600.59;5043977;28;20053;-59
2022/06/18 04:30:30;;;;;;;20.55;7.70;;;;;;;25.02;100.00;101597.84;5045170;28;19987;-60
2022/06/18 04:33:00;;;;;;;19.67;8.63;;;;;;;25.02;100.00;101597.84;5045275;28;20049;-59
2022/06/18 04:35:27;;;;;;;14.50;7.73;;;;;;;25.01;100.00;101595.38;5045471;28;20091;-58
2022/06/18 04:38:00;;;;;;;19.40;8.27;;;;;;;24.73;100.00;101603.03;5044012;28;20026;-59
2022/06/18 04:40:46;;;;;;;16.75;8.00;;;;;;;25.25;100.00;101606.56;5011139;28;20105;-59
2022/06/18 04:43:20;;;;;;;21.17;9.10;;;;;;;25.13;100.00;101615.09;5044707;28;20030;-58
2022/06/18 04:45:54;;;;;;;21.77;8.10;;;;;;;25.35;100.00;101614.75;5041216;28;20033;-59
2022/06/18 04:48:22;;;;;;;20.23;8.70;;;;;;;25.31;100.00;101610.94;5043676;28;20055;-58
2022/06/18 04:50:49;;;;;;;16.10;8.53;;;;;;;25.53;100.00;101618.03;5045048;28;20029;-58
2022/06/18 04:53:16;;;;;;;21.20;8.93;;;;;;;25.44;100.00;101611.47;5038512;28;20022;-60
2022/06/18 04:55:45;;;;;;;17.00;8.90;;;;;;;25.33;100.00;101614.22;5049633;28;20040;-60
2022/06/18 04:58:10;;;;;;;21.73;8.70;;;;;;;25.50;100.00;101606.84;5043245;28;20030;-59
2022/06/18 05:00:41;;;;;;;21.93;9.47;;;;;;;25.61;100.00;101606.53;5043109;28;20028;-58
2022/06/18 05:03:23;;;;;;;18.10;9.13;;;;;;;25.92;100.00;101613.78;5041022;28;20040;-60
2022/06/18 05:06:12;;;;;;;19.13;9.37;;;;;;;26.01;100.00;101608.53;5043786;28;20041;-57
2022/06/18 05:08:57;;;;;;;23.27;8.67;;;;;;;25.60;100.00;101615.84;5046339;28;20101;-59
2022/06/18 05:11:53;;;;;;;16.93;8.50;;;;;;;25.66;100.00;101618.56;5042882;28;20053;-59
2022/06/18 05:14:38;;;;;;;19.03;9.13;;;;;;;25.39;100.00;101619.72;5043645;28;20045;-60
2022/06/18 05:17:30;;;;;;;21.47;8.80;;;;;;;25.46;100.00;101617.50;5044224;28;20107;-59
2022/06/18 05:19:56;;;;;;;17.10;9.03;;;;;;;25.26;100.00;101621.91;5045670;28;20064;-60
2022/06/18 05:22:23;;;;;;;19.47;9.27;;;;;;;25.28;100.00;101616.16;5041719;28;20044;-61
2022/06/18 05:24:51;;;;;;;20.40;9.50;;;;;;;26.09;100.00;101613.44;5042497;28;20030;-60
2022/06/18 05:27:24;;;;;;;23.80;10.13;;;;;;;26.16;100.00;101619.47;5044925;28;20037;-59
2022/06/18 05:29:51;;;;;;;21.20;8.53;;;;;;;26.34;100.00;101617.16;5042445;28;20021;-59
2022/06/18 05:32:17;;;;;;;17.20;9.17;;;;;;;26.29;100.00;101617.19;5042397;28;20038;-59
2022/06/18 05:34:43;;;;;;;16.13;8.25;;;;;;;25.82;100.00;101620.13;5038926;28;20045;-62
2022/06/18 05:37:31;;;;;;;17.60;8.50;;;;;;;25.75;100.00;101614.13;5044667;28;20041;-60
2022/06/18 05:39:56;;;;;;;25.13;9.13;;;;;;;25.82;100.00;101617.38;5042204;28;20049;-59
2022/06/18 05:42:23;;;;;;;17.43;8.53;;;;;;;26.16;100.00;101608.50;5042041;28;20101;-59
2022/06/18 05:44:49;;;;;;;15.40;7.47;;;;;;;26.52;100.00;101610.19;5044237;28;20034;-59
2022/06/18 05:47:27;;;;;;;24.20;8.90;;;;;;;26.11;100.00;101610.41;5042969;28;20046;-59
2022/06/18 05:49:56;;;;;;;18.10;8.13;;;;;;;26.62;100.00;101612.84;5042161;28;20040;-59
2022/06/18 05:52:22;;;;;;;19.33;7.43;;;;;;;26.13;100.00;101620.00;5044829;28;20026;-59
2022/06/18 05:54:51;;;;;;;17.13;8.07;;;;;;;25.69;100.00;101607.03;5043810;28;20056;-60
2022/06/18 05:57:48;;;;;;;26.37;8.93;;;;;;;25.76;100.00;101613.03;5041938;28;20034;-59
2022/06/18 06:00:22;;;;;;;18.07;8.00;;;;;;;25.56;100.00;101605.72;5042041;28;20511;-58
2022/06/18 06:02:50;;;;;;;24.87;8.73;;;;;;;25.89;100.00;101611.59;5039775;28;20060;-59
2022/06/18 06:05:17;;;;;;;19.60;7.73;;;;;;;25.64;100.00;101602.41;5042101;28;20033;-58
2022/06/18 06:07:44;;;;;;;20.93;8.53;;;;;;;25.73;100.00;101606.22;5043695;28;20025;-59
2022/06/18 06:13:22;;;;;;;16.00;8.77;;;;;;;25.75;100.00;101608.66;5035096;28;20040;-60
2022/06/18 06:15:49;;;;;;;16.27;8.20;;;;;;;25.91;100.00;101612.16;5041771;28;20089;-59
2022/06/18 06:18:18;;;;;;;21.23;8.27;;;;;;;25.54;100.00;101607.91;5041553;28;20037;-60
2022/06/18 06:20:47;;;;;;;20.20;8.57;;;;;;;26.23;100.00;101610.94;5042604;28;20105;-58
2022/06/18 06:23:13;;;;;;;16.10;8.00;;;;;;;26.69;100.00;101607.03;5045502;28;20025;-59
2022/06/18 06:25:40;;;;;;;21.00;8.10;;;;;;;26.67;100.00;101608.44;5042639;28;20036;-59
2022/06/18 06:28:10;;;;;;;17.37;7.57;;;;;;;26.15;100.00;101619.69;5043940;28;20040;-60
2022/06/18 06:30:38;;;;;;;19.53;7.97;;;;;;;25.97;100.00;101622.00;5044132;28;20101;-60
2022/06/18 06:33:04;;;;;;;15.87;7.40;;;;;;;26.23;100.00;101619.16;4954886;28;20047;-59
2022/06/18 06:35:30;;;;;;;18.43;8.27;;;;;;;26.42;100.00;101621.25;4943485;29;20032;-59
2022/06/18 06:37:56;;;;;;;21.60;8.40;;;;;;;26.22;100.00;101627.66;4943911;29;20040;-60
2022/06/18 06:40:22;;;;;;;20.98;8.00;;;;;;;26.62;100.00;101631.22;4943464;28;20040;-60
2022/06/18 06:42:55;;;;;;;20.53;9.07;;;;;;;26.52;100.00;101629.38;4941951;29;20139;-60
2022/06/18 06:45:25;;;;;;;17.70;9.30;;;;;;;26.64;100.00;101629.03;4944421;29;20096;-59
2022/06/18 06:47:52;;;;;;;18.00;9.23;;;;;;;26.63;100.00;101633.66;4940434;29;20043;-60
2022/06/18 06:50:19;;;;;;;18.00;8.27;;;;;;;27.10;100.00;101630.56;4949667;29;20099;-59
2022/06/18 06:52:45;;;;;;;21.23;8.10;;;;;;;27.00;100.00;101636.16;4945883;29;20040;-60
2022/06/18 06:58:04;;;;;;;13.20;7.33;;;;;;;27.03;100.00;101622.69;4945561;28;20039;-59
2022/06/18 07:00:33;;;;;;;23.50;8.20;;;;;;;26.82;100.00;101629.44;4949026;29;20043;-60
2022/06/18 07:02:58;;;;;;;18.80;8.93;;;;;;;26.18;100.00;101625.47;4944768;29;20037;-59
2022/06/18 07:05:24;;;;;;;;;;;;;;;26.37;100.00;101635.78;4946280;29;20032;-60
2022/06/18 07:07:49;;;;;;;18.07;8.60;;;;;;;26.56;100.00;101637.88;4947068;28;20044;-60
2022/06/18 07:10:15;;;;;;;24.55;10.18;;;;;;;27.48;100.00;101638.19;4944867;29;20062;-60
2022/06/18 07:12:40;;;;;;;19.92;8.35;;;;;;;27.77;100.00;101637.31;4944642;29;20080;-59
2022/06/18 07:15:07;;;;;;;24.17;8.75;;;;;;;27.59;100.00;101636.16;4946685;29;20032;-58
2022/06/18 07:17:33;;;;;;;20.30;8.67;;;;;;;27.34;100.00;101641.59;4945773;29;20059;-59
2022/06/18 07:19:59;;;;;;;23.50;9.13;;;;;;;27.76;100.00;101644.75;4945645;28;20039;-59
2022/06/18 07:22:25;;;;;;;;;;;;;;;28.00;100.00;101640.34;4945699;28;20040;-60
2022/06/18 07:24:50;;;;;;;17.43;8.03;;;;;;;28.20;100.00;101644.75;4945099;29;19946;-59
2022/06/18 07:27:15;;;;;;;;;;;;;;;27.65;100.00;101645.16;4944275;28;20032;-60
2022/06/18 07:29:40;;;;;;;21.50;9.10;;;;;;;27.78;100.00;101641.72;4945838;28;19911;-60
2022/06/18 07:32:07;;;;;;;;;;;;;;;27.23;100.00;101637.34;4960685;28;20108;-59
2022/06/18 07:34:33;;;;;;;19.40;8.03;;;;;;;27.53;100.00;101638.16;4974732;28;19918;-59
2022/06/18 07:36:58;;;;;;;;;;;;;;;27.61;100.00;101643.00;4983684;28;20099;-60
2022/06/18 07:39:24;;;;;;;16.97;8.03;;;;;;;27.33;100.00;101641.88;4976781;28;19978;-61
2022/06/18 07:41:53;;;;;;;;;;;;;;;27.84;100.00;101642.47;4975071;29;20035;-60
2022/06/18 07:44:18;;;;;;;16.40;7.67;;;;;;;28.44;100.00;101646.63;4975296;28;19926;-59
2022/06/18 07:46:47;;;;;;;17.63;8.23;;;;;;;28.18;100.00;101647.81;4974118;29;20039;-59
2022/06/18 07:49:14;;;;;;;108.40;65.27;;;;;;;28.46;100.00;101647.97;4974628;29;20043;-59
2022/06/18 07:51:39;;;;;;;32.50;18.47;;;;;;;28.40;100.00;101643.66;4976848;28;20038;-60
2022/06/18 07:54:05;;;;;;;;;;;;;;;28.90;100.00;101647.88;4979412;28;20031;-61
2022/06/18 07:56:32;;;;;;;22.10;11.57;;;;;;;28.98;100.00;101638.91;4976545;28;19915;-61
2022/06/18 07:58:57;;;;;;;9.53;5.27;;;;;;;29.67;100.00;101633.81;4974105;29;20028;-59
2022/06/18 08:01:23;;;;;;;;;;;;;;;29.00;100.00;101636.66;4973007;28;20031;-59
2022/06/18 08:03:48;;;;;;;38.47;16.47;;;;;;;28.96;100.00;101635.66;4974506;28;19940;-60
2022/06/18 08:06:13;;;;;;;;;;;;;;;28.74;100.00;101631.56;4973138;28;20111;-61
2022/06/18 08:08:39;;;;;;;42.07;17.90;;;;;;;28.90;100.00;101634.09;4971965;28;19918;-60
2022/06/18 08:11:07;;;;;;;;;;;;;;;29.23;100.00;101636.81;4988167;28;20098;-61
2022/06/18 08:13:33;;;;;;;21.83;8.53;;;;;;;29.32;100.00;101635.00;4973837;29;20013;-60
2022/06/18 08:15:59;;;;;;;;;;;;;;;28.97;100.00;101630.97;4972797;28;20036;-60
2022/06/18 08:18:25;;;;;;;20.23;9.43;;;;;;;29.31;100.00;101640.81;4976571;28;19921;-59
2022/06/18 08:20:50;;;;;;;;;;;;;;;28.98;100.00;101633.41;4973940;29;20068;-61
2022/06/18 08:23:16;;;;;;;17.40;8.07;;;;;;;29.26;100.00;101636.22;4973867;28;19922;-60
2022/06/18 08:25:42;;;;;;;21.00;8.57;;;;;;;29.26;100.00;101636.22;4975881;28;20051;-60
2022/06/18 08:28:09;;;;;;;19.57;8.60;;;;;;;29.95;100.00;101634.59;4973244;28;20028;-60
2022/06/18 08:30:35;;;;;;;19.97;6.93;;;;;;;29.48;100.00;101631.97;4976797;28;20035;-60
2022/06/18 08:33:00;;;;;;;21.97;7.77;;;;;;;29.31;100.00;101629.78;4975096;28;20047;-62
2022/06/18 08:35:26;;;;;;;19.80;8.03;;;;;;;29.10;100.00;101632.13;4974228;28;20070;-59
2022/06/18 08:37:52;;;;;;;15.30;6.57;;;;;;;29.50;100.00;101635.22;4975014;28;20036;-59
2022/06/18 08:40:37;;;;;;;19.10;8.30;;;;;;;29.69;100.00;101635.16;4973510;28;20035;-60
2022/06/18 08:43:21;;;;;;;12.20;5.60;;;;;;;29.58;100.00;101640.06;4972355;29;20176;-60
2022/06/18 08:46:11;;;;;;;16.93;6.20;;;;;;;30.20;100.00;101651.75;4972648;28;20047;-61
2022/06/18 08:48:56;;;;;;;21.17;8.63;;;;;;;30.32;100.00;101645.69;4973673;28;20390;-59
2022/06/18 08:51:42;;;;;;;13.23;6.37;;;;;;;30.30;100.00;101639.66;4973396;28;20035;-60
2022/06/18 08:54:38;;;;;;;18.33;7.85;;;;;;;30.81;100.00;101642.34;4973321;29;20035;-59
2022/06/18 08:57:08;;;;;;;15.98;7.70;;;;;;;30.69;100.00;101635.47;4973043;28;20024;-59
2022/06/18 08:59:52;;;;;;;23.52;8.50;;;;;;;30.70;100.00;101639.03;4975148;28;20153;-61
2022/06/18 09:02:28;;;;;;;21.08;8.48;;;;;;;30.42;100.00;101636.34;4971312;28;20049;-61
2022/06/18 09:05:07;;;;;;;;;;;;;;;30.33;100.00;101639.03;4976729;28;20035;-60
2022/06/18 09:08:08;;;;;;;17.90;7.70;;;;;;;30.52;100.00;101638.06;4980911;28;19921;-59
2022/06/18 09:11:04;;;;;;;18.17;6.85;;;;;;;30.96;100.00;101636.44;4972341;28;20034;-59
2022/06/18 09:13:48;;;;;;;22.75;8.18;;;;;;;31.57;100.00;101626.81;4973081;28;20058;-59
2022/06/18 09:16:18;;;;;;;111.93;60.63;;;;;;;32.00;100.00;101636.34;4973646;28;20046;-59
2022/06/18 09:18:53;;;;;;;67.57;40.78;;;;;;;31.50;100.00;101623.72;4977496;28;20050;-60
2022/06/18 09:21:24;;;;;;;42.17;24.58;;;;;;;31.44;100.00;101625.81;4972069;28;20035;-59
2022/06/18 09:23:57;;;;;;;34.92;11.85;;;;;;;31.16;100.00;101620.47;4973887;28;20024;-60
2022/06/18 09:26:28;;;;;;;53.10;28.63;;;;;;;31.29;100.00;101619.56;4974956;28;20026;-60
2022/06/18 09:29:29;;;;;;;68.45;38.25;;;;;;;31.29;100.00;101616.00;4971736;29;20149;-60
2022/06/18 09:32:05;;;;;;;27.45;8.20;;;;;;;30.99;100.00;101623.94;4957623;28;20047;-59
2022/06/18 09:34:49;;;;;;;33.65;17.20;;;;;;;31.92;100.00;101612.28;4975023;28;20034;-61
2022/06/18 09:37:21;;;;;;;20.65;9.32;;;;;;;31.94;100.00;101605.28;4972148;28;20039;-59
2022/06/18 09:39:53;;;;;;;38.45;18.50;;;;;;;32.49;100.00;101614.09;4976362;28;20034;-60
2022/06/18 09:42:33;;;;;;;29.23;14.85;;;;;;;32.71;100.00;101615.06;4972016;29;20058;-59
2022/06/18 09:45:24;;;;;;;22.30;7.97;;;;;;;32.01;100.00;101611.16;4973709;28;20065;-59
2022/06/18 09:47:52;;;;;;;17.70;7.70;;;;;;;32.81;99.93;101613.88;4972988;28;20069;-59
2022/06/18 09:50:29;;;;;;;24.00;9.50;;;;;;;32.64;100.00;101618.31;4974078;28;20043;-60
2022/06/18 09:53:11;;;;;;;17.73;7.20;;;;;;;33.14;94.70;101624.41;4973184;28;20031;-61
2022/06/18 09:55:51;;;;;;;24.13;7.45;;;;;;;33.21;93.52;101619.16;4973500;28;20039;-59
2022/06/18 09:58:28;;;;;;;22.20;5.97;;;;;;;33.86;88.87;101618.97;4975518;28;20064;-59
2022/06/18 10:00:56;;;;;;;22.80;7.85;;;;;;;34.45;83.50;101625.56;4970387;29;20063;-60
2022/06/18 10:09:02;;;;;;;70.15;43.25;;;;;;;35.76;71.93;101616.06;4971175;29;20490;-59
2022/06/18 10:11:28;;;;;;;56.53;29.95;;;;;;;36.47;68.60;101610.16;4971572;29;20042;-59
2022/06/18 10:14:15;;;;;;;40.22;25.13;;;;;;;37.09;66.49;101615.38;4971587;28;20031;-61
2022/06/18 10:17:06;;;;;;;23.42;14.15;;;;;;;37.22;61.84;101632.00;4973269;28;20731;-59
2022/06/18 10:19:41;;;;;;;20.23;11.10;;;;;;;37.05;62.57;101619.25;4975704;28;20027;-58
2022/06/18 10:22:30;;;;;;;16.33;8.32;;;;;;;36.86;60.96;101621.56;4973964;28;20031;-60
2022/06/18 10:25:13;;;;;;;19.83;4.43;;;;;;;37.47;54.69;101623.41;4974422;28;20212;-61
2022/06/18 10:27:48;;;;;;;12.68;4.88;;;;;;;37.97;52.50;101621.81;4972525;28;20047;-59
2022/06/18 10:30:24;;;;;;;18.52;5.85;;;;;;;37.92;52.30;101619.28;4971020;28;20102;-59
2022/06/18 10:33:05;;;;;;;15.85;4.28;;;;;;;37.79;51.62;101615.81;4973733;28;20054;-61
2022/06/18 10:35:53;;;;;;;17.88;5.65;;;;;;;38.01;51.85;101616.28;4974943;28;20122;-60
2022/06/18 10:38:37;;;;;;;21.02;10.55;;;;;;;38.47;50.15;101626.00;4971696;28;20098;-61
2022/06/18 10:41:03;;;;;;;24.80;11.15;;;;;;;37.82;50.02;101617.88;4975534;28;20069;-59
2022/06/18 10:43:35;;;;;;;25.17;9.40;;;;;;;38.08;48.87;101622.03;4971782;28;20039;-59
2022/06/18 10:46:21;;;;;;;13.10;4.57;;;;;;;38.14;48.85;101609.41;4969034;28;20026;-57
2022/06/18 10:48:51;;;;;;;15.82;4.88;;;;;;;39.15;45.75;101620.81;4970992;29;20050;-58
2022/06/18 10:51:19;;;;;;;12.25;4.45;;;;;;;39.50;46.00;101619.78;4972792;28;20039;-59
2022/06/18 10:53:57;;;;;;;13.57;4.97;;;;;;;39.67;42.95;101612.00;4971550;28;20031;-59
2022/06/18 10:56:26;;;;;;;15.52;4.43;;;;;;;39.48;44.46;101610.97;4969095;28;20051;-57
2022/06/18 10:58:59;;;;;;;17.52;4.07;;;;;;;39.42;44.98;101612.44;4971315;28;20099;-56
2022/06/18 11:01:34;;;;;;;11.07;4.22;;;;;;;39.81;44.13;101597.41;4976020;28;20049;-57
2022/06/18 11:04:18;;;;;;;22.73;5.05;;;;;;;39.75;44.15;101593.31;4971000;28;20054;-55
2022/06/18 11:06:45;;;;;;;14.30;4.55;;;;;;;39.90;43.98;101597.13;4971129;28;20097;-57
2022/06/18 11:09:21;;;;;;;13.05;4.25;;;;;;;40.25;42.62;101590.34;4974768;28;20043;-59
2022/06/18 11:11:53;;;;;;;13.35;3.95;;;;;;;39.42;44.30;101590.06;4970551;29;20047;-58
2022/06/18 11:14:19;;;;;;;15.10;4.07;;;;;;;39.89;43.51;101589.91;4970453;29;20038;-59
2022/06/18 11:16:47;;;;;;;13.52;4.30;;;;;;;40.36;43.53;101587.69;4971193;28;20042;-58
2022/06/18 11:19:26;;;;;;;13.43;4.07;;;;;;;41.95;40.06;101583.19;4972549;28;20120;-59
2022/06/18 11:21:53;;;;;;;19.58;4.13;;;;;;;40.76;40.48;101579.66;4970747;28;20065;-58
2022/06/18 11:24:29;;;;;;;16.65;4.60;;;;;;;40.11;43.57;101572.19;4974245;28;20082;-59
2022/06/18 11:26:59;;;;;;;10.98;4.38;;;;;;;40.40;42.48;101564.13;4974032;28;20035;-58
2022/06/18 11:29:47;;;;;;;19.02;4.20;;;;;;;39.76;42.58;101564.97;4970876;28;20047;-57
2022/06/18 11:32:31;;;;;;;13.02;4.40;;;;;;;40.19;42.03;101553.47;4974208;28;20075;-58
2022/06/18 11:35:10;;;;;;;14.48;4.13;;;;;;;40.83;41.21;101557.28;4973471;28;20111;-59
2022/06/18 11:37:37;;;;;;;14.18;5.07;;;;;;;40.64;42.19;101561.94;4976079;28;20042;-58
2022/06/18 11:40:18;;;;;;;14.50;4.68;;;;;;;40.10;43.49;101559.38;4975783;28;20107;-58
2022/06/18 11:42:49;;;;;;;21.27;5.88;;;;;;;40.50;43.27;101561.78;4977552;28;20031;-58
2022/06/18 11:45:21;;;;;;;14.98;4.30;;;;;;;40.13;43.77;101560.59;4976323;28;20043;-56
2022/06/18 11:48:01;;;;;;;11.60;4.85;;;;;;;40.66;41.66;101558.72;4974217;28;20030;-59
2022/06/18 11:50:42;;;;;;;11.57;4.38;;;;;;;40.60;42.39;101555.50;4974399;28;20037;-55
2022/06/18 11:53:31;;;;;;;15.02;3.33;;;;;;;41.06;40.22;101550.63;4971886;28;20098;-57
2022/06/18 11:55:58;;;;;;;14.48;4.10;;;;;;;41.45;40.13;101552.09;4972291;29;20047;-57